sensor_id;sensor_type;location;lat;lon;timestamp;pressure;altitude;pressure_sealevel;temperature;humidity
49529;BME280;35423;37.320;-121.762;2023-01-29T00:02:32;99742.37;;;37.52;7.40
49529;BME280;35423;37.320;-121.762;2023-01-29T00:04:58;99746.74;;;37.12;7.51
49529;BME280;35423;37.320;-121.762;2023-01-29T00:07:23;99750.00;;;37.19;7.61
49529;BME280;35423;37.320;-121.762;2023-01-29T00:09:51;99752.89;;;37.14;7.65
49529;BME280;35423;37.320;-121.762;2023-01-29T00:12:16;99755.81;;;36.79;7.81
49529;BME280;35423;37.320;-121.762;2023-01-29T00:14:46;99750.97;;;36.61;7.86
49529;BME280;35423;37.320;-121.762;2023-01-29T00:17:21;99748.98;;;36.59;8.01
49529;BME280;35423;37.320;-121.762;2023-01-29T00:19:47;99751.77;;;36.34;7.85
49529;BME280;35423;37.320;-121.762;2023-01-29T00:22:16;99751.51;;;36.14;8.01
49529;BME280;35423;37.320;-121.762;2023-01-29T00:24:47;99755.52;;;36.02;8.22
49529;BME280;35423;37.320;-121.762;2023-01-29T00:27:14;99756.67;;;35.75;8.38
49529;BME280;35423;37.320;-121.762;2023-01-29T00:29:39;99755.81;;;35.66;8.41
49529;BME280;35423;37.320;-121.762;2023-01-29T00:32:09;99751.67;;;35.55;8.52
49529;BME280;35423;37.320;-121.762;2023-01-29T00:34:40;99752.53;;;35.48;8.74
49529;BME280;35423;37.320;-121.762;2023-01-29T00:37:12;99751.95;;;35.26;8.90
49529;BME280;35423;37.320;-121.762;2023-01-29T00:39:41;99745.61;;;35.05;9.14
49529;BME280;35423;37.320;-121.762;2023-01-29T00:42:07;99745.62;;;34.64;9.38
49529;BME280;35423;37.320;-121.762;2023-01-29T00:44:32;99743.37;;;34.43;9.48
49529;BME280;35423;37.320;-121.762;2023-01-29T00:47:10;99750.02;;;34.25;9.69
49529;BME280;35423;37.320;-121.762;2023-01-29T00:49:39;99751.74;;;34.18;9.98
49529;BME280;35423;37.320;-121.762;2023-01-29T00:52:05;99754.80;;;34.02;10.16
49529;BME280;35423;37.320;-121.762;2023-01-29T00:54:35;99759.20;;;33.73;10.24
49529;BME280;35423;37.320;-121.762;2023-01-29T00:57:00;99765.07;;;33.32;10.36
49529;BME280;35423;37.320;-121.762;2023-01-29T00:59:30;99766.57;;;32.73;10.55
49529;BME280;35423;37.320;-121.762;2023-01-29T01:02:03;99769.58;;;32.51;10.76
49529;BME280;35423;37.320;-121.762;2023-01-29T01:04:36;99772.30;;;32.45;10.84
49529;BME280;35423;37.320;-121.762;2023-01-29T01:07:05;99777.29;;;31.89;11.15
49529;BME280;35423;37.320;-121.762;2023-01-29T01:09:38;99779.36;;;31.66;11.42
49529;BME280;35423;37.320;-121.762;2023-01-29T01:12:07;99788.16;;;31.48;11.67
49529;BME280;35423;37.320;-121.762;2023-01-29T01:14:38;99797.26;;;30.93;11.99
49529;BME280;35423;37.320;-121.762;2023-01-29T01:17:04;99800.33;;;30.86;12.22
49529;BME280;35423;37.320;-121.762;2023-01-29T01:19:30;99794.64;;;30.08;12.49
49529;BME280;35423;37.320;-121.762;2023-01-29T01:22:01;99798.22;;;30.10;12.71
49529;BME280;35423;37.320;-121.762;2023-01-29T01:24:35;99803.73;;;29.46;12.92
49529;BME280;35423;37.320;-121.762;2023-01-29T01:27:00;99805.93;;;29.24;13.32
49529;BME280;35423;37.320;-121.762;2023-01-29T01:29:30;99807.47;;;28.84;13.52
49529;BME280;35423;37.320;-121.762;2023-01-29T01:32:00;99813.43;;;28.76;13.68
49529;BME280;35423;37.320;-121.762;2023-01-29T01:34:31;99814.87;;;28.49;13.93
49529;BME280;35423;37.320;-121.762;2023-01-29T01:37:01;99816.18;;;28.66;14.03
49529;BME280;35423;37.320;-121.762;2023-01-29T01:39:32;99818.04;;;28.21;14.13
49529;BME280;35423;37.320;-121.762;2023-01-29T01:42:09;99819.84;;;28.03;14.40
49529;BME280;35423;37.320;-121.762;2023-01-29T01:47:01;99821.15;;;27.57;14.66
49529;BME280;35423;37.320;-121.762;2023-01-29T01:49:26;99817.95;;;27.63;14.77
49529;BME280;35423;37.320;-121.762;2023-01-29T01:51:53;99814.72;;;27.28;15.01
49529;BME280;35423;37.320;-121.762;2023-01-29T01:54:23;99814.09;;;27.06;15.18
49529;BME280;35423;37.320;-121.762;2023-01-29T01:57:02;99817.54;;;27.19;15.22
49529;BME280;35423;37.320;-121.762;2023-01-29T01:59:29;99822.67;;;26.74;15.31
49529;BME280;35423;37.320;-121.762;2023-01-29T02:01:55;99830.30;;;26.77;15.41
49529;BME280;35423;37.320;-121.762;2023-01-29T02:04:30;99837.56;;;26.28;15.62
49529;BME280;35423;37.320;-121.762;2023-01-29T02:06:59;99837.28;;;26.32;15.65
49529;BME280;35423;37.320;-121.762;2023-01-29T02:09:33;99836.95;;;26.38;15.80
49529;BME280;35423;37.320;-121.762;2023-01-29T02:11:56;99846.67;;;25.95;15.87
49529;BME280;35423;37.320;-121.762;2023-01-29T02:14:21;99849.75;;;25.79;16.02
49529;BME280;35423;37.320;-121.762;2023-01-29T02:16:47;99853.42;;;25.91;16.15
49529;BME280;35423;37.320;-121.762;2023-01-29T02:19:26;99854.34;;;25.64;16.30
49529;BME280;35423;37.320;-121.762;2023-01-29T02:26:57;99850.24;;;25.67;16.48
49529;BME280;35423;37.320;-121.762;2023-01-29T02:29:25;99858.14;;;25.64;16.45
49529;BME280;35423;37.320;-121.762;2023-01-29T02:31:57;99854.80;;;25.57;16.49
49529;BME280;35423;37.320;-121.762;2023-01-29T02:34:20;99847.62;;;25.45;16.60
49529;BME280;35423;37.320;-121.762;2023-01-29T02:36:49;99840.99;;;25.32;16.74
49529;BME280;35423;37.320;-121.762;2023-01-29T02:39:18;99845.47;;;25.44;16.72
49529;BME280;35423;37.320;-121.762;2023-01-29T02:41:49;99846.65;;;25.32;16.77
49529;BME280;35423;37.320;-121.762;2023-01-29T02:44:16;99848.22;;;25.00;16.90
49529;BME280;35423;37.320;-121.762;2023-01-29T02:46:49;99850.29;;;24.87;16.85
49529;BME280;35423;37.320;-121.762;2023-01-29T02:49:16;99848.27;;;24.92;17.02
49529;BME280;35423;37.320;-121.762;2023-01-29T02:51:41;99840.41;;;24.51;17.09
49529;BME280;35423;37.320;-121.762;2023-01-29T02:54:14;99844.48;;;24.65;17.23
49529;BME280;35423;37.320;-121.762;2023-01-29T02:56:39;99857.57;;;24.36;17.20
49529;BME280;35423;37.320;-121.762;2023-01-29T02:59:06;99858.87;;;24.55;17.29
49529;BME280;35423;37.320;-121.762;2023-01-29T03:01:43;99861.81;;;24.18;17.26
49529;BME280;35423;37.320;-121.762;2023-01-29T03:04:08;99862.87;;;24.41;17.21
49529;BME280;35423;37.320;-121.762;2023-01-29T03:06:40;99864.24;;;24.31;17.23
49529;BME280;35423;37.320;-121.762;2023-01-29T03:09:11;99860.41;;;24.25;17.22
49529;BME280;35423;37.320;-121.762;2023-01-29T03:11:39;99853.87;;;24.19;17.28
49529;BME280;35423;37.320;-121.762;2023-01-29T03:14:07;99852.86;;;24.02;17.35
49529;BME280;35423;37.320;-121.762;2023-01-29T03:16:34;99847.37;;;23.92;17.39
49529;BME280;35423;37.320;-121.762;2023-01-29T03:19:00;99838.88;;;23.75;17.53
49529;BME280;35423;37.320;-121.762;2023-01-29T03:21:28;99830.14;;;23.90;17.79
49529;BME280;35423;37.320;-121.762;2023-01-29T03:23:49;99831.34;;;23.22;17.92
49529;BME280;35423;37.320;-121.762;2023-01-29T03:26:23;99838.71;;;23.05;18.07
49529;BME280;35423;37.320;-121.762;2023-01-29T03:28:59;99841.44;;;23.53;18.03
49529;BME280;35423;37.320;-121.762;2023-01-29T03:31:30;99844.43;;;23.51;18.00
49529;BME280;35423;37.320;-121.762;2023-01-29T03:33:59;99844.53;;;23.58;17.97
49529;BME280;35423;37.320;-121.762;2023-01-29T03:36:31;99839.24;;;23.66;17.91
49529;BME280;35423;37.320;-121.762;2023-01-29T03:39:06;99834.03;;;23.76;17.80
49529;BME280;35423;37.320;-121.762;2023-01-29T03:41:36;99832.02;;;23.77;17.80
49529;BME280;35423;37.320;-121.762;2023-01-29T03:44:09;99828.73;;;23.78;17.82
49529;BME280;35423;37.320;-121.762;2023-01-29T03:46:34;99826.78;;;23.58;17.76
49529;BME280;35423;37.320;-121.762;2023-01-29T03:49:04;99829.96;;;23.54;17.74
49529;BME280;35423;37.320;-121.762;2023-01-29T03:51:35;99824.64;;;23.63;17.86
49529;BME280;35423;37.320;-121.762;2023-01-29T03:54:03;99821.66;;;23.50;17.90
49529;BME280;35423;37.320;-121.762;2023-01-29T03:56:38;99820.79;;;23.31;17.99
49529;BME280;35423;37.320;-121.762;2023-01-29T03:58:57;99816.47;;;23.18;18.14
49529;BME280;35423;37.320;-121.762;2023-01-29T04:01:27;99811.85;;;23.18;18.31
49529;BME280;35423;37.320;-121.762;2023-01-29T04:03:55;99818.00;;;23.11;18.36
49529;BME280;35423;37.320;-121.762;2023-01-29T04:06:26;99822.00;;;22.76;18.39
49529;BME280;35423;37.320;-121.762;2023-01-29T04:09:07;99828.93;;;23.23;18.45
49529;BME280;35423;37.320;-121.762;2023-01-29T04:11:35;99829.06;;;23.22;18.49
49529;BME280;35423;37.320;-121.762;2023-01-29T04:14:02;99834.66;;;22.96;18.50
49529;BME280;35423;37.320;-121.762;2023-01-29T04:16:36;99839.87;;;22.84;18.62
49529;BME280;35423;37.320;-121.762;2023-01-29T04:18:58;99839.82;;;22.74;18.67
49529;BME280;35423;37.320;-121.762;2023-01-29T04:21:26;99842.60;;;22.97;18.59
49529;BME280;35423;37.320;-121.762;2023-01-29T04:23:51;99848.72;;;22.78;18.56
49529;BME280;35423;37.320;-121.762;2023-01-29T04:26:34;99849.70;;;22.78;18.50
49529;BME280;35423;37.320;-121.762;2023-01-29T04:29:05;99856.66;;;22.98;18.51
49529;BME280;35423;37.320;-121.762;2023-01-29T04:31:29;99853.33;;;22.51;18.48
49529;BME280;35423;37.320;-121.762;2023-01-29T04:33:58;99850.82;;;22.97;18.47
49529;BME280;35423;37.320;-121.762;2023-01-29T04:36:28;99851.54;;;22.65;18.55
49529;BME280;35423;37.320;-121.762;2023-01-29T04:38:55;99852.99;;;22.77;18.63
49529;BME280;35423;37.320;-121.762;2023-01-29T04:41:21;99849.05;;;22.75;18.60
49529;BME280;35423;37.320;-121.762;2023-01-29T04:43:55;99849.52;;;22.67;18.67
49529;BME280;35423;37.320;-121.762;2023-01-29T04:46:15;99860.03;;;22.43;18.88
49529;BME280;35423;37.320;-121.762;2023-01-29T04:48:47;99857.03;;;22.53;18.92
49529;BME280;35423;37.320;-121.762;2023-01-29T04:51:12;99862.95;;;22.29;18.87
49529;BME280;35423;37.320;-121.762;2023-01-29T04:53:43;99866.41;;;22.18;18.96
49529;BME280;35423;37.320;-121.762;2023-01-29T04:56:16;99860.96;;;22.14;18.95
49529;BME280;35423;37.320;-121.762;2023-01-29T04:58:44;99855.23;;;22.09;18.98
49529;BME280;35423;37.320;-121.762;2023-01-29T05:01:13;99853.04;;;22.50;19.06
49529;BME280;35423;37.320;-121.762;2023-01-29T05:03:38;99850.16;;;22.17;19.26
49529;BME280;35423;37.320;-121.762;2023-01-29T05:06:03;99852.71;;;22.28;19.30
49529;BME280;35423;37.320;-121.762;2023-01-29T05:08:39;99852.39;;;22.25;19.27
49529;BME280;35423;37.320;-121.762;2023-01-29T05:11:15;99852.50;;;21.96;19.32
49529;BME280;35423;37.320;-121.762;2023-01-29T05:13:48;99849.67;;;22.22;19.39
49529;BME280;35423;37.320;-121.762;2023-01-29T05:16:15;99844.91;;;22.31;19.35
49529;BME280;35423;37.320;-121.762;2023-01-29T05:18:47;99844.33;;;22.34;19.35
49529;BME280;35423;37.320;-121.762;2023-01-29T05:21:14;99848.85;;;22.33;19.33
49529;BME280;35423;37.320;-121.762;2023-01-29T05:23:47;99847.54;;;22.03;19.37
49529;BME280;35423;37.320;-121.762;2023-01-29T05:26:18;99844.48;;;22.30;19.39
49529;BME280;35423;37.320;-121.762;2023-01-29T05:28:45;99843.62;;;21.78;19.37
49529;BME280;35423;37.320;-121.762;2023-01-29T05:31:34;99842.06;;;22.24;19.33
49529;BME280;35423;37.320;-121.762;2023-01-29T05:34:06;99842.01;;;21.93;19.42
49529;BME280;35423;37.320;-121.762;2023-01-29T05:36:35;99846.44;;;21.90;19.43
49529;BME280;35423;37.320;-121.762;2023-01-29T05:39:03;99848.21;;;22.32;19.43
49529;BME280;35423;37.320;-121.762;2023-01-29T05:41:32;99849.77;;;21.99;19.52
49529;BME280;35423;37.320;-121.762;2023-01-29T05:44:01;99848.43;;;21.88;19.53
49529;BME280;35423;37.320;-121.762;2023-01-29T05:46:27;99846.97;;;21.58;19.46
49529;BME280;35423;37.320;-121.762;2023-01-29T05:48:57;99849.63;;;21.70;19.52
49529;BME280;35423;37.320;-121.762;2023-01-29T05:51:23;99849.54;;;21.64;19.49
49529;BME280;35423;37.320;-121.762;2023-01-29T05:53:51;99848.61;;;21.78;19.51
49529;BME280;35423;37.320;-121.762;2023-01-29T05:56:17;99845.91;;;21.56;19.46
49529;BME280;35423;37.320;-121.762;2023-01-29T05:58:43;99846.33;;;21.52;19.48
49529;BME280;35423;37.320;-121.762;2023-01-29T06:01:25;99848.61;;;21.47;19.55
49529;BME280;35423;37.320;-121.762;2023-01-29T06:03:50;99851.56;;;21.51;19.52
49529;BME280;35423;37.320;-121.762;2023-01-29T06:06:17;99854.00;;;21.50;19.57
49529;BME280;35423;37.320;-121.762;2023-01-29T06:08:42;99854.05;;;21.69;19.64
49529;BME280;35423;37.320;-121.762;2023-01-29T06:11:10;99849.65;;;21.35;19.66
49529;BME280;35423;37.320;-121.762;2023-01-29T06:13:46;99849.43;;;21.29;19.69
49529;BME280;35423;37.320;-121.762;2023-01-29T06:16:14;99846.18;;;21.37;19.76
49529;BME280;35423;37.320;-121.762;2023-01-29T06:18:44;99843.50;;;21.22;19.83
49529;BME280;35423;37.320;-121.762;2023-01-29T06:21:11;99842.70;;;21.20;19.84
49529;BME280;35423;37.320;-121.762;2023-01-29T06:23:35;99841.07;;;21.21;19.88
49529;BME280;35423;37.320;-121.762;2023-01-29T06:26:10;99838.57;;;21.25;19.92
49529;BME280;35423;37.320;-121.762;2023-01-29T06:28:35;99835.98;;;21.30;19.98
49529;BME280;35423;37.320;-121.762;2023-01-29T06:31:03;99834.29;;;21.28;20.00
49529;BME280;35423;37.320;-121.762;2023-01-29T06:33:33;99830.60;;;21.16;20.09
49529;BME280;35423;37.320;-121.762;2023-01-29T06:36:01;99829.39;;;21.10;20.12
49529;BME280;35423;37.320;-121.762;2023-01-29T06:38:28;99825.40;;;21.01;20.19
49529;BME280;35423;37.320;-121.762;2023-01-29T06:40:54;99822.46;;;20.96;20.22
49529;BME280;35423;37.320;-121.762;2023-01-29T06:43:20;99818.53;;;20.88;20.32
49529;BME280;35423;37.320;-121.762;2023-01-29T06:45:49;99819.13;;;20.76;20.38
49529;BME280;35423;37.320;-121.762;2023-01-29T06:48:09;99818.86;;;20.58;20.30
49529;BME280;35423;37.320;-121.762;2023-01-29T06:50:37;99817.64;;;20.80;20.33
49529;BME280;35423;37.320;-121.762;2023-01-29T06:53:04;99813.40;;;21.01;20.39
49529;BME280;35423;37.320;-121.762;2023-01-29T06:55:33;99816.64;;;20.78;20.38
49529;BME280;35423;37.320;-121.762;2023-01-29T06:58:05;99821.09;;;20.83;20.31
49529;BME280;35423;37.320;-121.762;2023-01-29T07:00:32;99821.50;;;20.79;20.37
49529;BME280;35423;37.320;-121.762;2023-01-29T07:02:59;99821.65;;;20.57;20.26
49529;BME280;35423;37.320;-121.762;2023-01-29T07:05:25;99825.09;;;20.85;20.22
49529;BME280;35423;37.320;-121.762;2023-01-29T07:07:50;99824.23;;;21.13;20.23
49529;BME280;35423;37.320;-121.762;2023-01-29T07:10:16;99819.70;;;21.08;20.23
49529;BME280;35423;37.320;-121.762;2023-01-29T07:12:44;99818.65;;;21.06;20.26
49529;BME280;35423;37.320;-121.762;2023-01-29T07:15:10;99819.28;;;20.70;20.35
49529;BME280;35423;37.320;-121.762;2023-01-29T07:17:38;99815.86;;;20.88;20.41
49529;BME280;35423;37.320;-121.762;2023-01-29T07:20:16;99810.65;;;20.83;20.53
49529;BME280;35423;37.320;-121.762;2023-01-29T07:22:45;99809.18;;;20.42;20.61
49529;BME280;35423;37.320;-121.762;2023-01-29T07:25:15;99813.95;;;20.67;20.59
49529;BME280;35423;37.320;-121.762;2023-01-29T07:27:43;99814.28;;;20.70;20.60
49529;BME280;35423;37.320;-121.762;2023-01-29T07:30:17;99813.39;;;20.41;20.67
49529;BME280;35423;37.320;-121.762;2023-01-29T07:32:43;99812.86;;;20.70;20.63
49529;BME280;35423;37.320;-121.762;2023-01-29T07:35:09;99814.24;;;20.65;20.68
49529;BME280;35423;37.320;-121.762;2023-01-29T07:37:50;99810.73;;;20.40;20.67
49529;BME280;35423;37.320;-121.762;2023-01-29T07:40:22;99800.90;;;20.53;20.79
49529;BME280;35423;37.320;-121.762;2023-01-29T07:42:50;99794.74;;;20.48;20.83
49529;BME280;35423;37.320;-121.762;2023-01-29T07:45:22;99785.18;;;20.54;20.97
49529;BME280;35423;37.320;-121.762;2023-01-29T07:47:53;99778.96;;;20.42;21.01
49529;BME280;35423;37.320;-121.762;2023-01-29T07:50:17;99778.06;;;20.25;20.96
49529;BME280;35423;37.320;-121.762;2023-01-29T07:52:47;99772.88;;;20.24;20.96
49529;BME280;35423;37.320;-121.762;2023-01-29T07:55:23;99767.51;;;20.25;20.99
49529;BME280;35423;37.320;-121.762;2023-01-29T07:57:55;99766.45;;;20.27;21.03
49529;BME280;35423;37.320;-121.762;2023-01-29T08:00:18;99764.05;;;20.24;21.07
49529;BME280;35423;37.320;-121.762;2023-01-29T08:03:05;99755.47;;;20.24;21.02
49529;BME280;35423;37.320;-121.762;2023-01-29T08:05:32;99751.36;;;20.20;21.08
49529;BME280;35423;37.320;-121.762;2023-01-29T08:07:57;99748.93;;;20.15;21.12
49529;BME280;35423;37.320;-121.762;2023-01-29T08:10:24;99748.23;;;20.57;21.14
49529;BME280;35423;37.320;-121.762;2023-01-29T08:12:56;99744.55;;;20.33;21.20
49529;BME280;35423;37.320;-121.762;2023-01-29T08:15:30;99745.49;;;20.11;21.23
49529;BME280;35423;37.320;-121.762;2023-01-29T08:18:03;99749.08;;;20.60;21.12
49529;BME280;35423;37.320;-121.762;2023-01-29T08:20:45;99749.38;;;20.62;21.01
49529;BME280;35423;37.320;-121.762;2023-01-29T08:23:15;99749.01;;;20.38;21.05
49529;BME280;35423;37.320;-121.762;2023-01-29T08:25:40;99745.35;;;20.12;21.12
49529;BME280;35423;37.320;-121.762;2023-01-29T08:28:14;99741.79;;;20.07;21.17
49529;BME280;35423;37.320;-121.762;2023-01-29T08:30:48;99739.40;;;20.00;21.21
49529;BME280;35423;37.320;-121.762;2023-01-29T08:33:18;99735.28;;;20.18;21.27
49529;BME280;35423;37.320;-121.762;2023-01-29T08:35:52;99735.94;;;19.95;21.36
49529;BME280;35423;37.320;-121.762;2023-01-29T08:38:28;99729.95;;;19.95;21.36
49529;BME280;35423;37.320;-121.762;2023-01-29T08:40:53;99727.15;;;20.14;21.33
49529;BME280;35423;37.320;-121.762;2023-01-29T08:43:22;99723.76;;;20.30;21.40
49529;BME280;35423;37.320;-121.762;2023-01-29T08:45:47;99716.22;;;19.97;21.56
49529;BME280;35423;37.320;-121.762;2023-01-29T08:48:14;99714.18;;;20.02;21.70
49529;BME280;35423;37.320;-121.762;2023-01-29T08:50:40;99714.27;;;19.78;21.68
49529;BME280;35423;37.320;-121.762;2023-01-29T08:53:15;99713.99;;;19.78;21.73
49529;BME280;35423;37.320;-121.762;2023-01-29T08:55:43;99709.77;;;20.00;21.81
49529;BME280;35423;37.320;-121.762;2023-01-29T08:58:12;99713.50;;;19.93;21.77
49529;BME280;35423;37.320;-121.762;2023-01-29T09:00:38;99707.73;;;19.58;21.92
49529;BME280;35423;37.320;-121.762;2023-01-29T09:03:03;99705.49;;;19.71;21.98
49529;BME280;35423;37.320;-121.762;2023-01-29T09:05:39;99701.91;;;19.60;22.02
49529;BME280;35423;37.320;-121.762;2023-01-29T09:08:06;99704.52;;;19.64;22.00
49529;BME280;35423;37.320;-121.762;2023-01-29T09:10:48;99707.40;;;19.73;21.95
49529;BME280;35423;37.320;-121.762;2023-01-29T09:13:13;99713.83;;;19.57;21.90
49529;BME280;35423;37.320;-121.762;2023-01-29T09:15:44;99714.71;;;19.85;21.87
49529;BME280;35423;37.320;-121.762;2023-01-29T09:18:10;99715.83;;;19.85;21.86
49529;BME280;35423;37.320;-121.762;2023-01-29T09:20:36;99720.30;;;19.64;21.83
49529;BME280;35423;37.320;-121.762;2023-01-29T09:23:11;99719.85;;;19.61;21.81
49529;BME280;35423;37.320;-121.762;2023-01-29T09:25:43;99717.34;;;19.84;21.85
49529;BME280;35423;37.320;-121.762;2023-01-29T09:28:11;99715.37;;;19.79;21.81
49529;BME280;35423;37.320;-121.762;2023-01-29T09:30:47;99710.73;;;19.77;21.76
49529;BME280;35423;37.320;-121.762;2023-01-29T09:33:27;99706.52;;;19.72;21.71
49529;BME280;35423;37.320;-121.762;2023-01-29T09:35:43;99703.91;;;19.48;21.70
49529;BME280;35423;37.320;-121.762;2023-01-29T09:38:12;99698.83;;;19.68;21.73
49529;BME280;35423;37.320;-121.762;2023-01-29T09:40:45;99695.31;;;19.65;21.71
49529;BME280;35423;37.320;-121.762;2023-01-29T09:43:09;99688.43;;;19.63;21.77
49529;BME280;35423;37.320;-121.762;2023-01-29T09:45:44;99683.65;;;19.54;21.80
49529;BME280;35423;37.320;-121.762;2023-01-29T09:48:11;99679.07;;;19.49;21.71
49529;BME280;35423;37.320;-121.762;2023-01-29T09:50:38;99676.19;;;19.48;21.60
49529;BME280;35423;37.320;-121.762;2023-01-29T09:53:16;99675.86;;;19.75;21.54
49529;BME280;35423;37.320;-121.762;2023-01-29T09:55:41;99671.44;;;19.44;21.62
49529;BME280;35423;37.320;-121.762;2023-01-29T09:58:15;99668.02;;;19.41;21.66
49529;BME280;35423;37.320;-121.762;2023-01-29T10:00:47;99663.20;;;19.43;21.67
49529;BME280;35423;37.320;-121.762;2023-01-29T10:03:20;99664.48;;;19.44;21.64
49529;BME280;35423;37.320;-121.762;2023-01-29T10:05:42;99662.43;;;19.36;21.66
49529;BME280;35423;37.320;-121.762;2023-01-29T10:08:16;99662.18;;;19.22;21.69
49529;BME280;35423;37.320;-121.762;2023-01-29T10:10:46;99662.10;;;19.13;21.69
49529;BME280;35423;37.320;-121.762;2023-01-29T10:13:14;99659.62;;;19.04;21.70
49529;BME280;35423;37.320;-121.762;2023-01-29T10:16:04;99652.14;;;19.33;21.70
49529;BME280;35423;37.320;-121.762;2023-01-29T10:18:29;99651.31;;;19.03;21.70
49529;BME280;35423;37.320;-121.762;2023-01-29T10:20:56;99651.76;;;19.27;21.72
49529;BME280;35423;37.320;-121.762;2023-01-29T10:23:21;99645.10;;;19.00;21.71
49529;BME280;35423;37.320;-121.762;2023-01-29T10:25:43;99638.36;;;19.25;21.73
49529;BME280;35423;37.320;-121.762;2023-01-29T10:28:15;99632.15;;;19.47;21.76
49529;BME280;35423;37.320;-121.762;2023-01-29T10:30:43;99629.26;;;19.47;21.77
49529;BME280;35423;37.320;-121.762;2023-01-29T10:33:17;99631.19;;;19.43;21.78
49529;BME280;35423;37.320;-121.762;2023-01-29T10:35:40;99627.82;;;19.20;21.77
49529;BME280;35423;37.320;-121.762;2023-01-29T10:40:40;99621.61;;;19.02;21.86
49529;BME280;35423;37.320;-121.762;2023-01-29T10:43:05;99624.56;;;19.21;21.92
49529;BME280;35423;37.320;-121.762;2023-01-29T10:45:41;99624.61;;;18.92;21.94
49529;BME280;35423;37.320;-121.762;2023-01-29T10:50:45;99634.94;;;19.08;21.98
49529;BME280;35423;37.320;-121.762;2023-01-29T10:53:17;99638.05;;;19.47;22.08
49529;BME280;35423;37.320;-121.762;2023-01-29T10:55:48;99636.25;;;18.55;22.44
49529;BME280;35423;37.320;-121.762;2023-01-29T10:58:08;99637.49;;;18.96;22.62
49529;BME280;35423;37.320;-121.762;2023-01-29T11:00:34;99635.24;;;18.91;22.67
49529;BME280;35423;37.320;-121.762;2023-01-29T11:03:13;99634.63;;;18.90;22.69
49529;BME280;35423;37.320;-121.762;2023-01-29T11:05:32;99636.02;;;18.30;22.80
49529;BME280;35423;37.320;-121.762;2023-01-29T11:08:01;99635.48;;;18.38;22.78
49529;BME280;35423;37.320;-121.762;2023-01-29T11:10:26;99632.51;;;18.55;22.62
49529;BME280;35423;37.320;-121.762;2023-01-29T11:12:51;99623.41;;;18.63;22.45
49529;BME280;35423;37.320;-121.762;2023-01-29T11:15:24;99614.28;;;18.69;22.31
49529;BME280;35423;37.320;-121.762;2023-01-29T11:20:25;99610.61;;;18.66;22.25
49529;BME280;35423;37.320;-121.762;2023-01-29T11:22:52;99606.60;;;18.60;22.29
49529;BME280;35423;37.320;-121.762;2023-01-29T11:25:20;99596.79;;;19.55;22.30
49529;BME280;35423;37.320;-121.762;2023-01-29T11:27:48;99591.15;;;18.32;22.44
49529;BME280;35423;37.320;-121.762;2023-01-29T11:30:20;99592.23;;;18.95;22.46
49529;BME280;35423;37.320;-121.762;2023-01-29T11:32:59;99588.44;;;18.24;22.74
49529;BME280;35423;37.320;-121.762;2023-01-29T11:35:25;99586.61;;;18.13;22.60
49529;BME280;35423;37.320;-121.762;2023-01-29T11:37:49;99589.89;;;18.22;22.51
49529;BME280;35423;37.320;-121.762;2023-01-29T11:42:44;99584.43;;;18.34;22.39
49529;BME280;35423;37.320;-121.762;2023-01-29T11:47:44;99587.97;;;18.71;22.40
49529;BME280;35423;37.320;-121.762;2023-01-29T11:50:16;99593.10;;;18.93;22.46
49529;BME280;35423;37.320;-121.762;2023-01-29T11:52:39;99588.63;;;18.75;22.86
49529;BME280;35423;37.320;-121.762;2023-01-29T11:55:00;99590.34;;;18.77;23.14
49529;BME280;35423;37.320;-121.762;2023-01-29T11:57:33;99587.54;;;18.34;23.39
49529;BME280;35423;37.320;-121.762;2023-01-29T12:00:03;99590.62;;;17.97;23.40
49529;BME280;35423;37.320;-121.762;2023-01-29T12:02:33;99595.70;;;17.89;23.31
49529;BME280;35423;37.320;-121.762;2023-01-29T12:05:06;99593.69;;;18.36;23.15
49529;BME280;35423;37.320;-121.762;2023-01-29T12:07:42;99593.62;;;18.23;22.94
49529;BME280;35423;37.320;-121.762;2023-01-29T12:10:26;99591.18;;;18.29;22.80
49529;BME280;35423;37.320;-121.762;2023-01-29T12:12:37;99590.19;;;18.33;22.77
49529;BME280;35423;37.320;-121.762;2023-01-29T12:15:14;99587.72;;;18.32;22.87
49529;BME280;35423;37.320;-121.762;2023-01-29T12:17:36;99589.00;;;18.31;22.90
49529;BME280;35423;37.320;-121.762;2023-01-29T12:20:09;99591.01;;;18.35;22.85
49529;BME280;35423;37.320;-121.762;2023-01-29T12:22:38;99586.13;;;18.35;22.72
49529;BME280;35423;37.320;-121.762;2023-01-29T12:25:05;99584.71;;;18.32;22.69
49529;BME280;35423;37.320;-121.762;2023-01-29T12:27:38;99583.40;;;18.31;22.66
49529;BME280;35423;37.320;-121.762;2023-01-29T12:30:21;99587.47;;;18.32;22.73
49529;BME280;35423;37.320;-121.762;2023-01-29T12:32:48;99584.29;;;18.31;22.76
49529;BME280;35423;37.320;-121.762;2023-01-29T12:35:11;99580.54;;;18.31;22.82
49529;BME280;35423;37.320;-121.762;2023-01-29T12:37:39;99577.94;;;18.34;22.83
49529;BME280;35423;37.320;-121.762;2023-01-29T12:40:01;99576.26;;;18.27;22.91
49529;BME280;35423;37.320;-121.762;2023-01-29T12:42:26;99575.15;;;18.26;22.87
49529;BME280;35423;37.320;-121.762;2023-01-29T12:44:54;99572.84;;;18.24;22.87
49529;BME280;35423;37.320;-121.762;2023-01-29T12:47:27;99564.10;;;18.25;22.85
49529;BME280;35423;37.320;-121.762;2023-01-29T12:49:53;99556.56;;;18.23;22.79
49529;BME280;35423;37.320;-121.762;2023-01-29T12:52:20;99558.46;;;18.09;22.86
49529;BME280;35423;37.320;-121.762;2023-01-29T12:54:51;99555.14;;;18.21;22.99
49529;BME280;35423;37.320;-121.762;2023-01-29T12:57:24;99554.74;;;18.11;23.08
49529;BME280;35423;37.320;-121.762;2023-01-29T12:59:54;99554.14;;;18.00;23.40
49529;BME280;35423;37.320;-121.762;2023-01-29T13:02:31;99551.41;;;17.67;23.80